Time;durP1;ratioP1;P1;durP2;ratioP2;P2;SDS_P1;SDS_P2;PMS_P1;PMS_P2;Temp;Humidity;BMP_temperature;BMP_pressure;BME280_temperature;BME280_humidity;BME280_pressure;Samples;Min_cycle;Max_cycle;Signal;HPM_P1;HPM_P2
2022/07/26 00:00:28;;;;;;;4.30;4.10;;;22.50;90.50;;;;;;4915595;29;20301;-70
2022/07/26 00:02:54;;;;;;;4.23;4.00;;;22.60;90.70;;;;;;4916077;29;20194;-70
2022/07/26 00:05:19;;;;;;;3.80;3.50;;;22.60;90.80;;;;;;4916500;29;20237;-70
2022/07/26 00:07:45;;;;;;;4.83;4.07;;;22.60;90.90;;;;;;4914347;29;20639;-69
2022/07/26 00:10:11;;;;;;;4.30;3.43;;;22.60;91.20;;;;;;4915918;29;20201;-70
2022/07/26 00:12:38;;;;;;;3.40;3.10;;;22.60;91.70;;;;;;4915563;29;20635;-70
2022/07/26 00:15:06;;;;;;;6.57;2.87;;;22.60;91.20;;;;;;4916131;29;20630;-69
2022/07/26 00:17:31;;;;;;;3.50;3.20;;;22.60;90.50;;;;;;4913689;29;20477;-70
2022/07/26 00:19:57;;;;;;;3.67;3.40;;;22.50;90.70;;;;;;4915963;29;20458;-70
2022/07/26 00:22:35;;;;;;;2.90;2.70;;;22.50;91.90;;;;;;4915667;29;20590;-72
2022/07/26 00:25:06;;;;;;;3.00;2.90;;;22.50;91.90;;;;;;4916117;29;20175;-70
2022/07/26 00:27:32;;;;;;;3.17;3.03;;;22.50;92.30;;;;;;4914487;29;20457;-70
2022/07/26 00:29:58;;;;;;;3.00;2.90;;;22.50;91.70;;;;;;4916262;29;20883;-69
2022/07/26 00:32:24;;;;;;;3.90;2.73;;;22.40;91.40;;;;;;4882194;29;20855;-70
2022/07/26 00:34:51;;;;;;;3.00;2.80;;;22.30;91.30;;;;;;4915964;29;20486;-70
2022/07/26 00:37:17;;;;;;;4.00;3.20;;;22.30;92.10;;;;;;4914155;29;20187;-70
2022/07/26 00:39:42;;;;;;;3.70;3.37;;;22.30;93.00;;;;;;4914955;29;20466;-70
2022/07/26 00:42:08;;;;;;;3.40;3.10;;;22.30;92.30;;;;;;4916260;29;20433;-69
2022/07/26 00:44:42;;;;;;;4.73;3.43;;;22.30;92.40;;;;;;4915000;29;20571;-70
2022/07/26 00:47:07;;;;;;;3.50;3.30;;;22.30;91.90;;;;;;4915005;29;20426;-70
2022/07/26 00:49:33;;;;;;;6.10;3.30;;;22.30;92.10;;;;;;4915590;29;20430;-70
2022/07/26 00:51:59;;;;;;;3.80;3.50;;;22.30;92.60;;;;;;4914776;29;20186;-70
2022/07/26 00:54:25;;;;;;;3.20;2.90;;;22.30;92.90;;;;;;4915496;29;20183;-70
2022/07/26 00:56:52;;;;;;;3.67;3.43;;;22.30;92.80;;;;;;4915801;29;20455;-69
2022/07/26 00:59:18;;;;;;;3.60;3.40;;;22.40;93.10;;;;;;4915010;29;20661;-70
2022/07/26 01:01:44;;;;;;;3.50;3.30;;;22.30;92.60;;;;;;4915687;29;20458;-70
2022/07/26 01:04:09;;;;;;;4.60;4.13;;;22.30;92.40;;;;;;4915958;29;20237;-70
2022/07/26 01:06:35;;;;;;;4.20;3.40;;;22.20;92.90;;;;;;4915354;29;20634;-70
2022/07/26 01:09:03;;;;;;;3.23;3.00;;;22.30;93.50;;;;;;4914897;29;20654;-69
2022/07/26 01:11:30;;;;;;;3.70;3.40;;;22.20;92.80;;;;;;4915356;29;20182;-70
2022/07/26 01:13:56;;;;;;;3.53;3.20;;;22.30;92.90;;;;;;4915302;29;20441;-70
2022/07/26 01:16:22;;;;;;;4.00;3.13;;;22.30;93.10;;;;;;4914628;29;20462;-69
2022/07/26 01:18:47;;;;;;;3.53;3.30;;;22.20;92.80;;;;;;4915013;29;20565;-70
2022/07/26 01:21:14;;;;;;;3.30;3.10;;;22.20;93.30;;;;;;4919087;29;20638;-69
2022/07/26 01:23:41;;;;;;;4.13;3.70;;;22.10;93.00;;;;;;4918554;29;20186;-70
2022/07/26 01:26:07;;;;;;;3.33;3.00;;;22.10;93.30;;;;;;4919122;29;20515;-70
2022/07/26 01:28:37;;;;;;;3.80;3.20;;;22.20;93.60;;;;;;4917109;29;20497;-69
2022/07/26 01:31:06;;;;;;;3.57;3.27;;;22.20;93.30;;;;;;4918818;29;20291;-70
2022/07/26 01:33:33;;;;;;;3.43;3.17;;;22.10;93.10;;;;;;4918491;29;20446;-70
2022/07/26 01:35:59;;;;;;;3.33;3.10;;;22.10;93.10;;;;;;4918962;29;20410;-70
2022/07/26 01:38:26;;;;;;;3.77;3.47;;;22.10;93.30;;;;;;4917823;29;20430;-69
2022/07/26 01:40:52;;;;;;;6.20;3.40;;;22.10;93.30;;;;;;4918858;29;20761;-69
2022/07/26 01:43:18;;;;;;;3.60;3.30;;;22.10;93.30;;;;;;4918420;29;20492;-69
2022/07/26 01:45:44;;;;;;;4.60;3.20;;;22.10;93.10;;;;;;4917947;29;20822;-70
2022/07/26 01:48:10;;;;;;;3.93;3.63;;;22.10;93.20;;;;;;4917952;29;20190;-70
2022/07/26 01:50:36;;;;;;;3.97;3.63;;;22.00;93.30;;;;;;4918157;29;20234;-70
2022/07/26 01:53:02;;;;;;;3.40;3.20;;;22.00;93.70;;;;;;4918358;29;20206;-73
2022/07/26 01:55:28;;;;;;;3.50;3.20;;;22.00;93.70;;;;;;4918471;29;20465;-76
2022/07/26 01:57:54;;;;;;;3.07;2.87;;;22.00;93.50;;;;;;4916390;29;20182;-69
2022/07/26 02:00:19;;;;;;;3.67;3.37;;;21.90;93.60;;;;;;4918487;29;20206;-69
2022/07/26 02:02:45;;;;;;;5.30;3.33;;;21.90;93.50;;;;;;4917490;29;20242;-69
2022/07/26 02:05:11;;;;;;;3.60;3.30;;;21.90;93.70;;;;;;4916839;29;20273;-69
2022/07/26 02:07:42;;;;;;;5.50;3.53;;;21.90;95.30;;;;;;4882894;29;20279;-69
2022/07/26 02:10:09;;;;;;;4.00;3.60;;;21.90;94.70;;;;;;4918335;29;20430;-69
2022/07/26 02:12:35;;;;;;;4.97;4.23;;;21.80;95.40;;;;;;4917729;29;20450;-69
2022/07/26 02:15:02;;;;;;;8.73;3.90;;;21.90;94.60;;;;;;4916227;29;21003;-69
2022/07/26 02:17:28;;;;;;;5.00;4.03;;;21.90;94.30;;;;;;4918252;29;20438;-70
2022/07/26 02:19:54;;;;;;;3.90;3.70;;;21.80;94.40;;;;;;4917921;29;20471;-69
2022/07/26 02:22:19;;;;;;;4.40;3.57;;;21.90;94.70;;;;;;4917477;29;20186;-69
2022/07/26 02:24:46;;;;;;;4.17;3.87;;;21.80;94.60;;;;;;4915691;29;20531;-69
2022/07/26 02:27:12;;;;;;;3.80;3.60;;;21.90;95.10;;;;;;4917457;29;20171;-70
2022/07/26 02:29:38;;;;;;;4.70;3.63;;;21.90;94.60;;;;;;4916452;29;20442;-69
2022/07/26 02:32:04;;;;;;;3.30;3.10;;;21.80;94.60;;;;;;4916649;29;20281;-69
2022/07/26 02:34:30;;;;;;;3.47;3.17;;;21.80;95.20;;;;;;4917171;29;20187;-75
2022/07/26 02:36:56;;;;;;;3.47;3.17;;;21.80;95.50;;;;;;4916787;29;20430;-69
2022/07/26 02:39:26;;;;;;;3.40;3.20;;;21.70;97.00;;;;;;4917346;29;20473;-69
2022/07/26 02:41:59;;;;;;;4.23;3.80;;;21.80;96.00;;;;;;4917294;29;20265;-70
2022/07/26 02:44:26;;;;;;;3.93;3.63;;;21.70;95.90;;;;;;4915436;29;20965;-70
2022/07/26 02:46:52;;;;;;;3.30;3.00;;;21.80;95.80;;;;;;4931763;29;20415;-70
2022/07/26 02:49:19;;;;;;;3.93;3.30;;;21.70;95.70;;;;;;4916648;29;20438;-70
2022/07/26 02:51:45;;;;;;;3.60;3.30;;;21.70;95.90;;;;;;4916611;29;20434;-69
2022/07/26 02:54:11;;;;;;;3.17;2.93;;;21.70;95.80;;;;;;4915757;29;20441;-70
2022/07/26 02:56:37;;;;;;;4.23;3.70;;;21.80;95.80;;;;;;4916207;29;20931;-70
2022/07/26 02:59:03;;;;;;;3.63;3.20;;;21.80;95.90;;;;;;4917368;29;20958;-69
2022/07/26 03:01:29;;;;;;;3.80;3.50;;;21.80;96.20;;;;;;4917447;29;20429;-70
2022/07/26 03:03:55;;;;;;;3.50;3.20;;;21.70;95.90;;;;;;4915832;29;20937;-75
2022/07/26 03:06:21;;;;;;;4.10;3.20;;;21.70;96.20;;;;;;4916722;29;20422;-69
2022/07/26 03:08:48;;;;;;;3.20;2.90;;;21.80;95.90;;;;;;4916478;29;20536;-70
2022/07/26 03:11:13;;;;;;;4.23;3.60;;;21.80;95.50;;;;;;4917372;29;20187;-69
2022/07/26 03:13:39;;;;;;;3.83;3.53;;;21.80;95.70;;;;;;4916858;29;20429;-70
2022/07/26 03:16:06;;;;;;;4.03;3.70;;;21.70;95.50;;;;;;4916569;29;20572;-70
2022/07/26 03:18:32;;;;;;;4.10;3.67;;;21.80;96.00;;;;;;4916226;29;20288;-69
2022/07/26 03:20:58;;;;;;;4.37;4.00;;;21.80;96.00;;;;;;4917034;29;20415;-69
2022/07/26 03:23:24;;;;;;;4.53;3.30;;;21.80;96.00;;;;;;4915884;29;20894;-69
2022/07/26 03:25:50;;;;;;;3.80;3.50;;;21.80;96.00;;;;;;4915274;29;20217;-69
2022/07/26 03:28:16;;;;;;;4.00;3.80;;;21.80;96.20;;;;;;4917014;29;20182;-69
2022/07/26 03:30:42;;;;;;;4.07;3.03;;;21.80;96.50;;;;;;4916372;29;20273;-69
2022/07/26 03:33:07;;;;;;;3.50;3.23;;;21.80;96.50;;;;;;4915762;29;20517;-69
2022/07/26 03:35:33;;;;;;;4.00;3.67;;;21.80;96.30;;;;;;4916012;29;20190;-69
2022/07/26 03:37:59;;;;;;;5.97;3.80;;;21.80;96.90;;;;;;4916816;29;20178;-69
2022/07/26 03:40:25;;;;;;;4.40;4.00;;;21.80;96.50;;;;;;4916478;29;20462;-69
2022/07/26 03:42:51;;;;;;;3.63;3.43;;;21.80;96.30;;;;;;4915019;29;20190;-69
2022/07/26 03:45:17;;;;;;;3.50;3.20;;;21.80;96.50;;;;;;4916364;29;20186;-69
2022/07/26 03:47:44;;;;;;;4.47;3.00;;;21.80;97.30;;;;;;4915704;29;20785;-70
2022/07/26 03:50:10;;;;;;;4.90;3.57;;;21.80;97.10;;;;;;4916646;29;20615;-70
2022/07/26 03:52:36;;;;;;;7.30;6.10;;;21.80;97.80;;;;;;4915494;29;20438;-70
2022/07/26 03:56:27;;;;;;;6.27;5.03;;;21.80;98.90;;;;;;4915834;29;20930;-69
2022/07/26 03:57:50;;;;;;;5.70;3.40;;;21.80;99.90;;;;;;4915729;29;20197;-69
2022/07/26 04:00:16;;;;;;;5.57;3.57;;;21.70;99.90;;;;;;4916418;29;20458;-72
2022/07/26 04:02:42;;;;;;;4.67;3.50;;;21.70;99.90;;;;;;4866958;29;20449;-71
2022/07/26 04:05:08;;;;;;;3.80;3.50;;;21.70;99.90;;;;;;4915719;29;20189;-71
2022/07/26 04:07:41;;;;;;;4.17;3.67;;;21.60;99.90;;;;;;4915809;29;20186;-71
2022/07/26 04:10:07;;;;;;;7.60;5.43;;;21.60;99.90;;;;;;4916508;29;20450;-71
2022/07/26 04:12:33;;;;;;;4.60;4.30;;;21.50;99.90;;;;;;4916400;29;20829;-71
2022/07/26 04:14:58;;;;;;;4.70;4.30;;;21.50;99.90;;;;;;4915058;29;20473;-71
2022/07/26 04:17:24;;;;;;;6.07;5.00;;;21.50;99.90;;;;;;4899623;29;20613;-71
2022/07/26 04:19:50;;;;;;;5.00;4.60;;;21.50;99.90;;;;;;4915770;29;20210;-71
2022/07/26 04:22:15;;;;;;;5.37;5.10;;;21.40;99.90;;;;;;4916017;29;20186;-71
2022/07/26 04:24:41;;;;;;;4.27;4.00;;;21.40;99.90;;;;;;4914966;29;20186;-72
2022/07/26 04:27:07;;;;;;;4.90;4.50;;;21.40;99.90;;;;;;4916041;29;20178;-71
2022/07/26 04:29:32;;;;;;;6.27;5.80;;;21.30;99.90;;;;;;4916436;29;20282;-71
2022/07/26 04:31:58;;;;;;;6.37;5.60;;;21.30;99.90;;;;;;4915342;29;20269;-71
2022/07/26 04:34:24;;;;;;;4.63;4.20;;;21.30;99.90;;;;;;4915169;29;20175;-72
2022/07/26 04:36:50;;;;;;;5.00;4.67;;;21.20;99.90;;;;;;4928333;29;20194;-71
2022/07/26 04:39:15;;;;;;;5.00;4.70;;;21.20;99.90;;;;;;4915698;29;20685;-71
2022/07/26 04:41:41;;;;;;;7.30;6.30;;;21.20;99.90;;;;;;4914831;29;20194;-70
2022/07/26 04:44:06;;;;;;;5.50;5.10;;;21.20;99.90;;;;;;4915791;29;20197;-71
2022/07/26 04:46:32;;;;;;;7.67;5.03;;;21.20;99.90;;;;;;4929330;29;20264;-71
2022/07/26 04:48:58;;;;;;;4.90;4.50;;;21.20;99.90;;;;;;4915092;29;20233;-70
2022/07/26 04:51:25;;;;;;;4.50;4.10;;;21.10;99.90;;;;;;4930476;29;20245;-71
2022/07/26 04:53:50;;;;;;;5.10;4.60;;;21.10;99.90;;;;;;4915146;29;20237;-70
2022/07/26 04:56:16;;;;;;;7.90;6.00;;;21.10;99.90;;;;;;4917291;29;20938;-71
2022/07/26 04:58:42;;;;;;;8.67;5.27;;;21.00;99.90;;;;;;4918972;29;20182;-71
2022/07/26 05:01:07;;;;;;;5.13;4.73;;;21.00;99.90;;;;;;4918847;29;20205;-71
2022/07/26 05:03:33;;;;;;;6.50;5.17;;;21.00;99.90;;;;;;4917706;29;20214;-70
2022/07/26 05:05:59;;;;;;;6.00;5.50;;;21.00;99.90;;;;;;4917857;29;20274;-71
2022/07/26 05:08:25;;;;;;;6.93;5.27;;;21.00;99.90;;;;;;4918073;29;20774;-71
2022/07/26 05:10:50;;;;;;;5.37;4.60;;;21.00;99.90;;;;;;4918010;29;20193;-70
2022/07/26 05:13:16;;;;;;;5.60;5.10;;;21.00;99.90;;;;;;4918904;29;20659;-71
2022/07/26 05:15:42;;;;;;;5.70;5.20;;;21.00;99.90;;;;;;4917550;29;20238;-72
2022/07/26 05:18:09;;;;;;;11.97;5.90;;;21.00;99.90;;;;;;4919249;29;20182;-71
2022/07/26 05:20:36;;;;;;;8.63;7.83;;;21.00;99.90;;;;;;4919174;29;20549;-71
2022/07/26 05:23:01;;;;;;;7.40;6.70;;;21.00;99.90;;;;;;4917367;29;20445;-71
2022/07/26 05:25:27;;;;;;;8.00;6.60;;;21.00;99.90;;;;;;4922033;29;20438;-69
2022/07/26 05:27:53;;;;;;;8.47;5.10;;;21.00;99.90;;;;;;4918437;29;20556;-69
2022/07/26 05:30:19;;;;;;;6.20;5.53;;;21.10;99.90;;;;;;4918539;29;20639;-69
2022/07/26 05:32:45;;;;;;;7.50;4.93;;;21.30;99.90;;;;;;4917277;29;20262;-69
2022/07/26 05:35:10;;;;;;;4.93;4.50;;;21.30;99.90;;;;;;4918403;29;20465;-69
2022/07/26 05:37:36;;;;;;;7.60;5.57;;;21.30;99.90;;;;;;4915379;29;20214;-69
2022/07/26 05:40:06;;;;;;;6.47;5.63;;;21.30;99.90;;;;;;4917918;29;20232;-70
2022/07/26 05:42:31;;;;;;;7.60;5.60;;;21.20;99.90;;;;;;4915401;29;20205;-71
2022/07/26 05:44:57;;;;;;;6.33;5.83;;;21.10;99.90;;;;;;4917213;29;20438;-70
2022/07/26 05:47:23;;;;;;;8.30;7.10;;;21.10;99.90;;;;;;4917522;29;20198;-69
2022/07/26 05:49:49;;;;;;;9.00;7.67;;;21.00;99.90;;;;;;4915321;29;20236;-69
2022/07/26 05:52:15;;;;;;;9.57;6.60;;;21.00;99.90;;;;;;4918090;29;20276;-69
2022/07/26 05:54:41;;;;;;;6.87;6.10;;;20.90;99.90;;;;;;4918691;29;20418;-69
2022/07/26 05:57:06;;;;;;;6.73;6.07;;;20.90;99.90;;;;;;4918301;29;20423;-69
2022/07/26 05:59:32;;;;;;;9.10;5.90;;;20.90;99.90;;;;;;4913198;29;20213;-69
2022/07/26 06:01:58;;;;;;;12.83;7.77;;;20.90;99.90;;;;;;4917610;29;20265;-68
2022/07/26 06:04:25;;;;;;;6.93;6.37;;;20.90;99.90;;;;;;4917839;29;20250;-69
2022/07/26 06:06:51;;;;;;;9.00;6.37;;;20.90;99.90;;;;;;4917661;29;20182;-70
2022/07/26 06:09:17;;;;;;;10.83;6.73;;;20.80;99.90;;;;;;4901393;29;20814;-75
2022/07/26 06:11:43;;;;;;;7.30;6.70;;;20.80;99.90;;;;;;4917500;29;20449;-85
2022/07/26 06:14:09;;;;;;;8.50;7.90;;;20.80;99.90;;;;;;4917424;29;20265;-70
2022/07/26 06:16:34;;;;;;;9.10;7.30;;;20.80;99.90;;;;;;4917370;29;20474;-70
2022/07/26 06:19:00;;;;;;;8.73;6.93;;;20.70;99.90;;;;;;4917125;29;20621;-70
2022/07/26 06:21:26;;;;;;;12.90;11.20;;;20.70;99.90;;;;;;4915839;29;20198;-71
2022/07/26 06:23:52;;;;;;;9.33;7.03;;;20.70;99.90;;;;;;4916807;29;20191;-71
2022/07/26 06:26:17;;;;;;;8.20;6.60;;;20.70;99.90;;;;;;4917612;29;20194;-69
2022/07/26 06:28:43;;;;;;;7.57;6.50;;;20.70;99.90;;;;;;4917195;29;20194;-70
2022/07/26 06:31:09;;;;;;;9.33;8.57;;;20.60;99.90;;;;;;4914800;29;20250;-70
2022/07/26 06:33:35;;;;;;;9.13;8.40;;;20.60;99.90;;;;;;4917753;29;20190;-69
2022/07/26 06:36:01;;;;;;;7.13;6.43;;;20.60;99.90;;;;;;4916864;29;20966;-69
2022/07/26 06:38:27;;;;;;;9.00;7.60;;;20.60;99.90;;;;;;4917266;29;20430;-68
2022/07/26 06:40:53;;;;;;;8.80;7.43;;;20.60;99.90;;;;;;4911616;29;20257;-68
2022/07/26 06:43:19;;;;;;;8.83;7.93;;;20.60;99.90;;;;;;4931437;29;20457;-69
2022/07/26 06:45:45;;;;;;;9.43;7.87;;;20.60;99.90;;;;;;4916023;29;20449;-81
2022/07/26 06:48:11;;;;;;;11.20;10.20;;;20.60;99.90;;;;;;4917063;29;20918;-68
2022/07/26 06:50:37;;;;;;;10.50;7.63;;;20.70;99.90;;;;;;4916501;29;20643;-68
2022/07/26 06:53:03;;;;;;;11.10;8.90;;;20.70;99.90;;;;;;4916562;29;20218;-68
2022/07/26 06:55:28;;;;;;;10.50;9.57;;;20.70;99.90;;;;;;4915726;29;20994;-69
2022/07/26 06:57:54;;;;;;;12.90;9.83;;;20.80;99.90;;;;;;4916892;29;20561;-68
2022/07/26 07:00:20;;;;;;;10.57;9.57;;;20.80;99.90;;;;;;4917432;29;20681;-71
2022/07/26 07:02:46;;;;;;;16.10;9.93;;;20.90;99.90;;;;;;4916937;29;20178;-79
2022/07/26 07:05:12;;;;;;;13.43;10.90;;;20.80;99.90;;;;;;4915210;29;20209;-69
2022/07/26 07:07:38;;;;;;;12.67;11.47;;;20.90;99.90;;;;;;4914590;29;20445;-69
2022/07/26 07:10:04;;;;;;;16.23;14.63;;;21.00;99.90;;;;;;4916659;29;20661;-69
2022/07/26 07:12:30;;;;;;;15.40;13.80;;;21.00;99.90;;;;;;4916979;29;20426;-68
2022/07/26 07:14:56;;;;;;;18.83;16.90;;;21.00;99.90;;;;;;4915665;29;20571;-69
2022/07/26 07:17:22;;;;;;;14.90;13.63;;;21.00;99.90;;;;;;4914516;29;20250;-68
2022/07/26 07:19:47;;;;;;;17.97;16.13;;;21.10;99.90;;;;;;4898973;29;20746;-77
2022/07/26 07:22:14;;;;;;;19.03;17.13;;;21.10;99.90;;;;;;4902656;29;20182;-69
2022/07/26 07:24:41;;;;;;;21.80;18.17;;;21.10;99.90;;;;;;4916083;29;20206;-69
2022/07/26 07:27:07;;;;;;;16.40;14.83;;;21.10;99.90;;;;;;4915442;29;20433;-69
2022/07/26 07:29:33;;;;;;;15.10;13.43;;;21.10;99.90;;;;;;4915830;29;20443;-68
2022/07/26 07:31:59;;;;;;;17.43;15.27;;;21.20;99.90;;;;;;4916102;29;20426;-68
2022/07/26 07:34:25;;;;;;;20.90;15.03;;;21.30;99.90;;;;;;4915617;29;20186;-69
2022/07/26 07:36:52;;;;;;;17.37;15.67;;;21.30;99.90;;;;;;4914885;29;20190;-69
2022/07/26 07:39:18;;;;;;;15.90;14.33;;;21.40;99.90;;;;;;4916392;29;20463;-68
2022/07/26 07:41:48;;;;;;;14.77;13.27;;;21.40;99.90;;;;;;4916763;29;20453;-68
2022/07/26 07:44:14;;;;;;;15.97;14.47;;;21.40;99.90;;;;;;4914809;29;20941;-70
2022/07/26 07:46:39;;;;;;;16.67;14.83;;;21.50;99.90;;;;;;4915259;29;20430;-68
2022/07/26 07:49:06;;;;;;;16.50;14.80;;;21.50;99.90;;;;;;4914707;29;20798;-68
2022/07/26 07:51:32;;;;;;;16.20;13.70;;;21.50;99.90;;;;;;4916307;29;20442;-69
2022/07/26 07:53:58;;;;;;;17.83;14.63;;;21.40;99.90;;;;;;4914260;29;20934;-68
2022/07/26 07:56:24;;;;;;;15.83;14.10;;;21.40;99.90;;;;;;4930033;29;20586;-69
2022/07/26 07:58:50;;;;;;;16.17;13.70;;;21.40;99.90;;;;;;4914991;29;20639;-80
2022/07/26 08:01:15;;;;;;;14.60;13.13;;;21.40;99.90;;;;;;4915671;29;20612;-68
2022/07/26 08:03:41;;;;;;;14.37;12.97;;;21.40;99.90;;;;;;4916526;29;20414;-68
2022/07/26 08:06:08;;;;;;;16.53;15.03;;;21.50;99.90;;;;;;4914888;29;20198;-68
2022/07/26 08:08:35;;;;;;;13.33;12.17;;;21.50;99.90;;;;;;4916651;29;20253;-68
2022/07/26 08:11:02;;;;;;;14.00;12.50;;;21.60;99.90;;;;;;4916227;29;20422;-68
2022/07/26 08:13:28;;;;;;;16.47;15.00;;;21.70;99.90;;;;;;4916299;29;20961;-68
2022/07/26 08:15:54;;;;;;;14.13;12.83;;;21.80;99.90;;;;;;4915132;29;20553;-69
2022/07/26 08:18:22;;;;;;;14.57;13.37;;;21.90;99.90;;;;;;4916349;29;20265;-68
2022/07/26 08:20:48;;;;;;;13.87;12.47;;;22.00;99.90;;;;;;4916030;29;20465;-68
2022/07/26 08:23:14;;;;;;;17.70;15.73;;;22.10;99.90;;;;;;4915785;29;20414;-69
2022/07/26 08:25:40;;;;;;;16.20;14.57;;;22.10;99.90;;;;;;4915718;29;20494;-68
2022/07/26 08:28:05;;;;;;;13.30;12.20;;;22.30;99.90;;;;;;4915744;29;20266;-68
2022/07/26 08:30:32;;;;;;;14.77;13.43;;;22.30;99.90;;;;;;4918898;29;20193;-68
2022/07/26 08:32:58;;;;;;;14.57;13.27;;;22.50;99.90;;;;;;4919903;29;20174;-68
2022/07/26 08:35:24;;;;;;;14.13;11.80;;;22.60;99.90;;;;;;4919408;29;20906;-68
2022/07/26 08:37:49;;;;;;;16.27;14.57;;;22.60;99.90;;;;;;4919345;29;20435;-68
2022/07/26 08:40:15;;;;;;;12.77;11.57;;;22.80;99.90;;;;;;4918421;29;20245;-68
2022/07/26 08:42:54;;;;;;;11.90;10.80;;;22.90;99.90;;;;;;4919947;29;20221;-68
2022/07/26 08:45:22;;;;;;;14.33;13.03;;;23.10;99.90;;;;;;4919117;29;20253;-68
2022/07/26 08:47:48;;;;;;;10.87;9.90;;;23.20;99.90;;;;;;4919770;29;20780;-68
2022/07/26 08:50:14;;;;;;;12.93;11.53;;;23.30;99.90;;;;;;4919221;29;20415;-68
2022/07/26 08:52:40;;;;;;;12.27;11.30;;;23.30;99.90;;;;;;4920081;29;20410;-68
2022/07/26 08:55:06;;;;;;;11.80;10.87;;;23.30;99.90;;;;;;4918345;29;20179;-68
2022/07/26 08:57:32;;;;;;;10.47;9.67;;;23.30;99.90;;;;;;4914886;29;20441;-68
2022/07/26 09:00:33;;;;;;;10.17;9.20;;;23.30;99.90;;;;;;4919112;29;20462;-68
2022/07/26 09:03:00;;;;;;;9.47;8.80;;;23.30;99.90;;;;;;4916707;29;20429;-68
2022/07/26 09:05:31;;;;;;;9.87;9.07;;;23.30;99.90;;;;;;4917616;29;20451;-68
2022/07/26 09:07:58;;;;;;;9.13;8.57;;;23.20;99.70;;;;;;4917628;29;20481;-68
2022/07/26 09:10:24;;;;;;;8.57;7.87;;;23.20;99.90;;;;;;4919515;29;20422;-68
2022/07/26 09:12:57;;;;;;;10.20;9.10;;;23.20;99.90;;;;;;4919456;29;20417;-68
2022/07/26 09:15:25;;;;;;;8.73;8.10;;;23.20;99.00;;;;;;4918538;29;20237;-68
2022/07/26 09:17:54;;;;;;;8.50;8.00;;;23.30;99.00;;;;;;4919022;29;20786;-68
2022/07/26 09:20:25;;;;;;;8.03;7.43;;;23.50;99.90;;;;;;4918863;29;20480;-68
2022/07/26 09:23:06;;;;;;;8.97;8.47;;;23.60;98.90;;;;;;4919278;29;20525;-68
2022/07/26 09:25:37;;;;;;;6.73;6.33;;;23.70;97.30;;;;;;4918611;29;20437;-68
2022/07/26 09:28:20;;;;;;;7.33;6.60;;;23.80;97.10;;;;;;4918596;29;20422;-69
2022/07/26 09:30:52;;;;;;;7.57;7.17;;;23.80;96.50;;;;;;4919248;29;20764;-68
2022/07/26 09:33:17;;;;;;;10.20;8.03;;;23.80;96.50;;;;;;4918260;29;20876;-68
2022/07/26 09:36:03;;;;;;;7.87;7.27;;;23.80;95.90;;;;;;4918279;29;20433;-68
2022/07/26 09:39:02;;;;;;;7.87;7.17;;;23.70;95.80;;;;;;4917846;29;20186;-68
2022/07/26 09:41:34;;;;;;;6.83;6.53;;;23.60;95.50;;;;;;4929326;29;20454;-68
2022/07/26 09:44:05;;;;;;;7.80;7.10;;;23.60;95.20;;;;;;4917003;29;20426;-68
2022/07/26 09:46:34;;;;;;;6.90;6.30;;;23.60;96.20;;;;;;4917756;29;20446;-68
2022/07/26 09:49:17;;;;;;;7.53;7.07;;;23.50;96.00;;;;;;4918283;29;20415;-69
2022/07/26 09:51:48;;;;;;;9.73;8.93;;;23.60;96.10;;;;;;4918736;29;20423;-68
2022/07/26 09:54:30;;;;;;;8.23;7.43;;;23.50;96.20;;;;;;4916863;29;20895;-68
2022/07/26 09:56:58;;;;;;;8.13;7.43;;;23.50;96.60;;;;;;4917844;29;20434;-68
2022/07/26 09:59:25;;;;;;;8.00;7.30;;;23.40;96.00;;;;;;4918510;29;20462;-68
2022/07/26 10:01:53;;;;;;;8.70;8.03;;;23.40;96.50;;;;;;4918517;29;20786;-68
2022/07/26 10:04:19;;;;;;;8.67;8.07;;;23.40;96.30;;;;;;4917670;29;20410;-69
2022/07/26 10:06:45;;;;;;;8.40;7.87;;;23.30;96.60;;;;;;4916481;29;20811;-68
2022/07/26 10:09:14;;;;;;;8.77;8.07;;;23.30;96.80;;;;;;4917257;29;20438;-68
2022/07/26 10:12:04;;;;;;;9.20;8.40;;;23.50;97.30;;;;;;4918335;29;20470;-68
2022/07/26 10:14:47;;;;;;;9.13;8.40;;;23.70;97.20;;;;;;4918063;29;20470;-68
2022/07/26 10:17:27;;;;;;;10.73;9.87;;;23.80;95.10;;;;;;4916510;29;20434;-69
2022/07/26 10:19:55;;;;;;;8.00;7.50;;;23.80;94.40;;;;;;4913927;29;20462;-68
2022/07/26 10:22:24;;;;;;;7.90;7.30;;;23.80;94.10;;;;;;4898733;29;20412;-68
2022/07/26 10:24:52;;;;;;;7.67;6.90;;;23.80;94.60;;;;;;4899318;29;20439;-68
2022/07/26 10:27:39;;;;;;;9.10;8.60;;;23.70;95.20;;;;;;4913206;29;20441;-68
2022/07/26 10:30:17;;;;;;;8.20;7.67;;;23.70;95.00;;;;;;4917556;29;20434;-69
2022/07/26 10:33:02;;;;;;;8.00;7.50;;;23.60;94.30;;;;;;4916788;29;20426;-68
2022/07/26 10:35:43;;;;;;;7.13;6.83;;;23.50;93.70;;;;;;4917449;29;20403;-70
2022/07/26 10:38:24;;;;;;;8.20;7.70;;;23.50;93.40;;;;;;4900314;29;20918;-68
2022/07/26 10:41:05;;;;;;;8.37;7.70;;;23.50;93.00;;;;;;4917799;29;20541;-68
2022/07/26 10:43:32;;;;;;;7.47;7.00;;;23.50;92.70;;;;;;4918063;29;20435;-68
2022/07/26 10:46:16;;;;;;;8.93;8.17;;;23.60;93.90;;;;;;4917314;29;20525;-68
2022/07/26 10:49:03;;;;;;;9.20;8.60;;;23.70;94.90;;;;;;4917674;29;20426;-68
2022/07/26 10:51:35;;;;;;;10.13;9.43;;;23.90;95.10;;;;;;4917019;29;20419;-68
2022/07/26 10:54:03;;;;;;;10.10;9.37;;;24.00;94.20;;;;;;4916706;29;20505;-70
2022/07/26 10:56:29;;;;;;;9.37;8.67;;;24.20;93.20;;;;;;4916952;29;20513;-68
2022/07/26 10:58:56;;;;;;;8.67;8.07;;;24.20;93.30;;;;;;4917508;29;20411;-68
2022/07/26 11:01:22;;;;;;;8.37;7.77;;;24.30;93.20;;;;;;4915774;29;20938;-68
2022/07/26 11:03:47;;;;;;;10.63;9.93;;;24.40;93.60;;;;;;4917460;29;20422;-68
2022/07/26 11:06:15;;;;;;;8.80;8.30;;;24.40;94.00;;;;;;4930438;29;20538;-68
2022/07/26 11:08:41;;;;;;;8.53;7.83;;;24.50;94.40;;;;;;4917360;29;20206;-68
2022/07/26 11:11:07;;;;;;;8.90;8.00;;;24.50;93.10;;;;;;4916711;29;20414;-68
2022/07/26 11:13:35;;;;;;;7.30;6.80;;;24.40;93.10;;;;;;4916333;29;20435;-68
2022/07/26 11:16:06;;;;;;;7.73;7.23;;;24.30;93.60;;;;;;4916855;29;20647;-80
2022/07/26 11:18:37;;;;;;;6.80;6.40;;;24.20;94.30;;;;;;4899442;29;20478;-68
2022/07/26 11:21:14;;;;;;;6.03;5.63;;;24.00;95.20;;;;;;4916445;29;20498;-68
2022/07/26 11:23:44;;;;;;;5.70;5.30;;;23.70;95.70;;;;;;4916416;29;20438;-68
2022/07/26 11:26:15;;;;;;;6.10;5.53;;;23.50;96.70;;;;;;4916457;29;20414;-68
2022/07/26 11:28:43;;;;;;;6.53;6.03;;;23.40;96.90;;;;;;4916291;29;20518;-68
2022/07/26 11:31:09;;;;;;;6.27;5.87;;;23.20;97.20;;;;;;4916388;29;20494;-68
2022/07/26 11:33:40;;;;;;;6.20;5.90;;;23.10;97.90;;;;;;4915865;29;20510;-68
2022/07/26 11:36:06;;;;;;;6.20;5.70;;;23.00;98.40;;;;;;4916049;29;20683;-68
2022/07/26 11:38:55;;;;;;;5.97;5.67;;;23.00;98.80;;;;;;4916103;29;20441;-68
2022/07/26 11:41:22;;;;;;;7.40;6.80;;;22.90;99.00;;;;;;4916300;29;20418;-68
2022/07/26 11:43:49;;;;;;;7.17;6.70;;;22.80;99.30;;;;;;4916850;29;20433;-68
2022/07/26 11:46:15;;;;;;;8.80;8.10;;;22.80;99.20;;;;;;4915897;29;20903;-68
2022/07/26 11:48:49;;;;;;;7.80;7.20;;;22.70;99.30;;;;;;4915272;29;20465;-68
2022/07/26 11:51:18;;;;;;;8.50;7.80;;;22.70;99.30;;;;;;4915497;29;20528;-68
2022/07/26 11:53:44;;;;;;;7.70;7.30;;;22.70;99.90;;;;;;4915962;29;20521;-68
2022/07/26 11:56:15;;;;;;;8.30;7.70;;;22.60;99.90;;;;;;4916274;29;20418;-68
2022/07/26 11:58:43;;;;;;;8.20;7.60;;;22.60;99.90;;;;;;4915826;29;20481;-68
2022/07/26 12:01:10;;;;;;;8.20;7.57;;;22.60;99.90;;;;;;4915385;29;20914;-68
2022/07/26 12:03:37;;;;;;;8.97;8.40;;;22.50;99.70;;;;;;4916181;29;20415;-68
2022/07/26 12:06:13;;;;;;;7.60;7.00;;;22.50;99.90;;;;;;4916211;29;20969;-68
2022/07/26 12:08:44;;;;;;;8.40;7.80;;;22.50;99.90;;;;;;4914257;29;20437;-68
2022/07/26 12:11:11;;;;;;;7.60;7.10;;;22.50;99.90;;;;;;4894670;29;20415;-68
2022/07/26 12:13:59;;;;;;;7.80;7.30;;;22.50;99.90;;;;;;4895161;29;20587;-68
2022/07/26 12:16:46;;;;;;;6.93;6.33;;;22.60;99.90;;;;;;4894851;29;20967;-68
2022/07/26 12:19:17;;;;;;;5.33;5.03;;;22.60;99.90;;;;;;4893716;29;20970;-69
2022/07/26 12:22:09;;;;;;;5.13;4.63;;;22.70;99.50;;;;;;4895323;29;20943;-68
2022/07/26 12:24:51;;;;;;;4.70;4.40;;;22.80;99.80;;;;;;4894799;29;20798;-68
2022/07/26 12:27:44;;;;;;;4.60;4.40;;;22.80;99.40;;;;;;4894633;29;20915;-68
2022/07/26 12:30:10;;;;;;;4.90;4.70;;;22.90;99.20;;;;;;4893774;29;20496;-68
2022/07/26 12:32:38;;;;;;;5.13;4.93;;;23.10;99.00;;;;;;4895178;29;20849;-68
2022/07/26 12:35:15;;;;;;;4.63;4.40;;;23.10;99.60;;;;;;4895094;29;20190;-68
2022/07/26 12:37:46;;;;;;;4.43;4.13;;;23.10;99.40;;;;;;4895116;29;20424;-68
2022/07/26 12:40:22;;;;;;;4.47;4.17;;;23.10;99.00;;;;;;4893580;29;20475;-69
2022/07/26 12:42:54;;;;;;;4.00;3.80;;;23.20;99.50;;;;;;4896545;29;20466;-68
2022/07/26 12:45:22;;;;;;;12.80;11.90;;;23.30;99.50;;;;;;4908656;29;20510;-69
2022/07/26 12:47:51;;;;;;;4.50;4.10;;;23.40;99.70;;;;;;4899783;29;20445;-69